Details for EasyJet at LIRF




Go Back


Latest METAR
Local Time

LIRF 241320Z 17004KT 140V210 9999 -DZ SCT022 SCT035 11/09 Q1004 NOSIG

24/02/2018, 14:36:08

Description
Results
EasyJet Logo
Number of Pilots based at LIRF
0 Pilots Based here
Number of EasyJet Flights Departed from LIRF
4 Flights Departed
Number of EasyJet Flights Arrived at LIRF
2 Flights Arrived
Number of EasyJet Schedules Departing from LIRF
41 Schedules
Number of EasyJet Schedules Arriving at LIRF
40 Schedules
Number of EasyJet Schedules Departing from LIRF availible today
14 Schedules Today
Number of EasyJet Schedules Arriving at LIRF availible today
14 Schedules Today
Average Landing Rate at LIRF
-192 fpm
EasyJet Average Landing Rate at LIRF
-35 fpm
Total Fuel Purchased at LIRF by EasyJet
11,258.17 kgs / 24,819.76 lbs

Pilots Based at LIRF


Pilot ID
Pilot Name
Pilot Rank
No. of Flights
No. of Flying Hours
There are no pilots assigned to this hub!   Will you be the first?
Content